Time;durP1;ratioP1;P1;durP2;ratioP2;P2;SDS_P1;SDS_P2;PMS_P1;PMS_P2;Temp;Humidity;BMP_temperature;BMP_pressure;BME280_temperature;BME280_humidity;BME280_pressure;Samples;Min_cycle;Max_cycle;Signal;HPM_P1;HPM_P2
2020/08/07 00:11:32;;;;;;;10;8.9;;;;;;;15.33;100;95638.53;;;;
2020/08/07 00:12:38;;;;;;;10;8.9;;;;;;;15.33;100;95638.53;;;;
2020/08/07 00:13:45;;;;;;;10;8.9;;;;;;;15.33;100;95638.53;;;;
2020/08/07 00:14:53;;;;;;;10;8.9;;;;;;;15.33;100;95638.53;;;;
2020/08/07 00:15:58;;;;;;;10;8.9;;;;;;;15.33;100;95638.53;;;;
2020/08/07 00:17:09;;;;;;;10;8.9;;;;;;;15.33;100;95638.53;;;;
2020/08/07 00:18:18;;;;;;;10;8.9;;;;;;;15.33;100;95638.53;;;;
2020/08/07 00:19:23;;;;;;;10;8.9;;;;;;;15.33;100;95638.53;;;;
2020/08/07 00:20:31;;;;;;;10;8.9;;;;;;;15.33;100;95638.53;;;;
2020/08/07 00:21:39;;;;;;;10;8.9;;;;;;;15.33;100;95638.53;;;;
2020/08/07 00:22:45;;;;;;;9.750001;8.949998;;;;;;;15.24;100;95632.73;;;;
2020/08/07 00:23:56;;;;;;;9.750001;8.949998;;;;;;;15.24;100;95632.73;;;;
2020/08/07 00:25:01;;;;;;;9.750001;8.949998;;;;;;;15.24;100;95632.73;;;;
2020/08/07 00:26:08;;;;;;;9.750001;8.949998;;;;;;;15.24;100;95632.73;;;;
2020/08/07 00:27:14;;;;;;;9.750001;8.949998;;;;;;;15.24;100;95632.73;;;;
2020/08/07 00:28:23;;;;;;;9.750001;8.949998;;;;;;;15.24;100;95632.73;;;;
2020/08/07 00:29:29;;;;;;;9.750001;8.949998;;;;;;;15.24;100;95632.73;;;;
2020/08/07 00:30:35;;;;;;;9.750001;8.949998;;;;;;;15.24;100;95632.73;;;;
2020/08/07 00:31:41;;;;;;;9.750001;8.949998;;;;;;;15.24;100;95632.73;;;;
2020/08/07 00:32:47;;;;;;;10;9.150002;;;;;;;15.12;100;95628.94;;;;
2020/08/07 00:33:52;;;;;;;10;9.150002;;;;;;;15.12;100;95628.94;;;;
2020/08/07 00:35:00;;;;;;;10;9.150002;;;;;;;15.12;100;95628.94;;;;
2020/08/07 00:36:06;;;;;;;10;9.150002;;;;;;;15.12;100;95628.94;;;;
2020/08/07 00:37:16;;;;;;;10;9.150002;;;;;;;15.12;100;95628.94;;;;
2020/08/07 00:38:21;;;;;;;10;9.150002;;;;;;;15.12;100;95628.94;;;;
2020/08/07 00:39:27;;;;;;;10;9.150002;;;;;;;15.12;100;95628.94;;;;
2020/08/07 00:40:34;;;;;;;10;9.150002;;;;;;;15.12;100;95628.94;;;;
2020/08/07 00:41:53;;;;;;;10;9.150002;;;;;;;15.12;100;95628.94;;;;
2020/08/07 00:42:58;;;;;;;10.9;9.900001;;;;;;;15.07;100;95623.44;;;;
2020/08/07 00:44:06;;;;;;;10.9;9.900001;;;;;;;15.07;100;95623.44;;;;
2020/08/07 00:45:10;;;;;;;10.9;9.900001;;;;;;;15.07;100;95623.44;;;;
2020/08/07 00:46:17;;;;;;;10.9;9.900001;;;;;;;15.07;100;95623.44;;;;
2020/08/07 00:47:23;;;;;;;10.9;9.900001;;;;;;;15.07;100;95623.44;;;;
2020/08/07 00:48:29;;;;;;;10.9;9.900001;;;;;;;15.07;100;95623.44;;;;
2020/08/07 00:49:35;;;;;;;10.9;9.900001;;;;;;;15.07;100;95623.44;;;;
2020/08/07 00:50:40;;;;;;;10.9;9.900001;;;;;;;15.07;100;95623.44;;;;
2020/08/07 00:51:49;;;;;;;10.9;9.900001;;;;;;;15.07;100;95623.44;;;;
2020/08/07 00:52:55;;;;;;;10.9;9.900001;;;;;;;15.07;100;95623.44;;;;
2020/08/07 00:54:01;;;;;;;10.9;9.900001;;;;;;;15.07;100;95623.44;;;;
2020/08/07 00:55:07;;;;;;;10.9;9.900001;;;;;;;15.07;100;95623.44;;;;
2020/08/07 00:56:14;;;;;;;10.9;9.900001;;;;;;;15.07;100;95623.44;;;;
2020/08/07 00:57:20;;;;;;;10.9;9.900001;;;;;;;15.07;100;95623.44;;;;
2020/08/07 00:58:26;;;;;;;10.9;9.900001;;;;;;;15.07;100;95623.44;;;;
2020/08/07 00:59:31;;;;;;;10.9;9.900001;;;;;;;15.07;100;95623.44;;;;
2020/08/07 01:00:37;;;;;;;10.9;9.900001;;;;;;;15.07;100;95623.44;;;;
2020/08/07 01:01:42;;;;;;;10.9;9.900001;;;;;;;15.07;100;95623.44;;;;
2020/08/07 01:02:46;;;;;;;10.9;9.900001;;;;;;;15.07;100;95623.44;;;;
2020/08/07 01:03:50;;;;;;;10.9;9.900001;;;;;;;15.07;100;95623.44;;;;
2020/08/07 01:04:55;;;;;;;10.9;9.900001;;;;;;;15.07;100;95623.44;;;;
2020/08/07 01:06:01;;;;;;;10.9;9.900001;;;;;;;15.07;100;95623.44;;;;
2020/08/07 01:07:09;;;;;;;10.9;9.900001;;;;;;;15.07;100;95623.44;;;;
2020/08/07 01:08:15;;;;;;;10.9;9.900001;;;;;;;15.07;100;95623.44;;;;
2020/08/07 01:09:20;;;;;;;10.9;9.900001;;;;;;;15.07;100;95623.44;;;;
2020/08/07 01:10:26;;;;;;;10.9;9.900001;;;;;;;15.07;100;95623.44;;;;
2020/08/07 01:11:32;;;;;;;10.9;9.900001;;;;;;;15.07;100;95623.44;;;;
2020/08/07 01:12:37;;;;;;;10.9;9.900001;;;;;;;15.07;100;95623.44;;;;
2020/08/07 01:13:45;;;;;;;10.9;9.900001;;;;;;;15.07;100;95623.44;;;;
2020/08/07 01:14:50;;;;;;;10.9;9.900001;;;;;;;15.07;100;95623.44;;;;
2020/08/07 01:15:58;;;;;;;10.4;9.500001;;;;;;;14.8;100;95617.97;;;;
2020/08/07 01:17:04;;;;;;;10.4;9.500001;;;;;;;14.8;100;95617.97;;;;
2020/08/07 01:18:10;;;;;;;10.4;9.500001;;;;;;;14.8;100;95617.97;;;;
2020/08/07 01:19:14;;;;;;;10.4;9.500001;;;;;;;14.8;100;95617.97;;;;
2020/08/07 01:20:21;;;;;;;10.4;9.500001;;;;;;;14.8;100;95617.97;;;;
2020/08/07 01:21:27;;;;;;;10.4;9.500001;;;;;;;14.8;100;95617.97;;;;
2020/08/07 01:26:28;;;;;;;10.65;9.749999;;;;;;;14.74;100;95612.19;;;;
2020/08/07 01:31:28;;;;;;;10.65;9.749999;;;;;;;14.74;100;95612.19;;;;
2020/08/07 01:34:31;;;;;;;10.65;9.749999;;;;;;;14.74;100;95612.19;;;;
2020/08/07 01:35:38;;;;;;;10.65;9.749999;;;;;;;14.74;100;95612.19;;;;
2020/08/07 01:36:39;;;;;;;10;9.099998;;;;;;;14.62;100;95610.67;;;;
2020/08/07 01:37:47;;;;;;;10;9.099998;;;;;;;14.62;100;95610.67;;;;
2020/08/07 01:38:48;;;;;;;10;9.099998;;;;;;;14.62;100;95610.67;;;;
2020/08/07 01:39:52;;;;;;;10;9.099998;;;;;;;14.62;100;95610.67;;;;
2020/08/07 01:40:58;;;;;;;10;9.099998;;;;;;;14.62;100;95610.67;;;;
2020/08/07 01:42:01;;;;;;;10;9.099998;;;;;;;14.62;100;95610.67;;;;
2020/08/07 01:43:10;;;;;;;10;9.099998;;;;;;;14.62;100;95610.67;;;;
2020/08/07 01:44:14;;;;;;;10;9.099998;;;;;;;14.62;100;95610.67;;;;
2020/08/07 01:45:21;;;;;;;10;9.099998;;;;;;;14.62;100;95610.67;;;;
2020/08/07 01:46:36;;;;;;;10;9.099998;;;;;;;14.62;100;95610.67;;;;
2020/08/07 01:47:42;;;;;;;10.2;9.4;;;;;;;14.56;100;95614.38;;;;
2020/08/07 01:48:46;;;;;;;10.2;9.4;;;;;;;14.56;100;95614.38;;;;
2020/08/07 01:49:53;;;;;;;10.2;9.4;;;;;;;14.56;100;95614.38;;;;
2020/08/07 01:50:58;;;;;;;10.2;9.4;;;;;;;14.56;100;95614.38;;;;
2020/08/07 01:52:05;;;;;;;10.2;9.4;;;;;;;14.56;100;95614.38;;;;
2020/08/07 01:53:12;;;;;;;10.2;9.4;;;;;;;14.56;100;95614.38;;;;
2020/08/07 01:54:19;;;;;;;10.2;9.4;;;;;;;14.56;100;95614.38;;;;
2020/08/07 01:55:25;;;;;;;10.2;9.4;;;;;;;14.56;100;95614.38;;;;
2020/08/07 01:56:32;;;;;;;10.2;9.4;;;;;;;14.56;100;95614.38;;;;
2020/08/07 01:57:36;;;;;;;10.2;9.4;;;;;;;14.56;100;95614.38;;;;
2020/08/07 01:58:43;;;;;;;10.6;9.599999;;;;;;;14.45;100;95617.52;;;;
2020/08/07 01:59:47;;;;;;;10.6;9.599999;;;;;;;14.45;100;95617.52;;;;
2020/08/07 02:00:54;;;;;;;10.6;9.599999;;;;;;;14.45;100;95617.52;;;;
2020/08/07 02:02:00;;;;;;;10.6;9.599999;;;;;;;14.45;100;95617.52;;;;
2020/08/07 02:03:02;;;;;;;10.6;9.599999;;;;;;;14.45;100;95617.52;;;;
2020/08/07 02:04:07;;;;;;;10.6;9.599999;;;;;;;14.45;100;95617.52;;;;
2020/08/07 02:05:12;;;;;;;10.6;9.599999;;;;;;;14.45;100;95617.52;;;;
2020/08/07 02:06:19;;;;;;;10.6;9.599999;;;;;;;14.45;100;95617.52;;;;
2020/08/07 02:07:26;;;;;;;10.6;9.599999;;;;;;;14.45;100;95617.52;;;;
2020/08/07 02:08:31;;;;;;;10.25;9.3;;;;;;;14.41;100;95619.5;;;;
2020/08/07 02:09:55;;;;;;;10.25;9.3;;;;;;;14.41;100;95619.5;;;;
2020/08/07 02:11:02;;;;;;;10.25;9.3;;;;;;;14.41;100;95619.5;;;;
2020/08/07 02:12:07;;;;;;;10.25;9.3;;;;;;;14.41;100;95619.5;;;;
2020/08/07 02:13:08;;;;;;;10.25;9.3;;;;;;;14.41;100;95619.5;;;;
2020/08/07 02:14:12;;;;;;;10.25;9.3;;;;;;;14.41;100;95619.5;;;;
2020/08/07 02:15:17;;;;;;;10.25;9.3;;;;;;;14.41;100;95619.5;;;;
2020/08/07 02:16:30;;;;;;;10.25;9.3;;;;;;;14.41;100;95619.5;;;;
2020/08/07 02:17:37;;;;;;;10.25;9.3;;;;;;;14.41;100;95619.5;;;;
2020/08/07 02:18:38;;;;;;;10.25;9.3;;;;;;;14.41;100;95619.5;;;;
2020/08/07 02:19:46;;;;;;;10.6;9.700001;;;;;;;14.3;100;95610.5;;;;
2020/08/07 02:20:51;;;;;;;10.6;9.700001;;;;;;;14.3;100;95610.5;;;;
2020/08/07 02:21:56;;;;;;;10.6;9.700001;;;;;;;14.3;100;95610.5;;;;
2020/08/07 02:23:02;;;;;;;10.6;9.700001;;;;;;;14.3;100;95610.5;;;;
2020/08/07 02:24:09;;;;;;;10.6;9.700001;;;;;;;14.3;100;95610.5;;;;
2020/08/07 02:25:13;;;;;;;10.6;9.700001;;;;;;;14.3;100;95610.5;;;;
2020/08/07 02:26:18;;;;;;;10.6;9.700001;;;;;;;14.3;100;95610.5;;;;
2020/08/07 02:27:23;;;;;;;10.6;9.700001;;;;;;;14.3;100;95610.5;;;;
2020/08/07 02:28:28;;;;;;;10.6;9.700001;;;;;;;14.3;100;95610.5;;;;
2020/08/07 02:29:30;;;;;;;10.6;9.700001;;;;;;;14.3;100;95610.5;;;;
2020/08/07 02:30:35;;;;;;;9.550001;8.700001;;;;;;;14.26;100;95607.58;;;;
2020/08/07 02:31:41;;;;;;;9.550001;8.700001;;;;;;;14.26;100;95607.58;;;;
2020/08/07 02:32:48;;;;;;;9.550001;8.700001;;;;;;;14.26;100;95607.58;;;;
2020/08/07 02:33:57;;;;;;;9.550001;8.700001;;;;;;;14.26;100;95607.58;;;;
2020/08/07 02:34:59;;;;;;;9.550001;8.700001;;;;;;;14.26;100;95607.58;;;;
2020/08/07 02:36:04;;;;;;;9.550001;8.700001;;;;;;;14.26;100;95607.58;;;;
2020/08/07 02:37:11;;;;;;;9.550001;8.700001;;;;;;;14.26;100;95607.58;;;;
2020/08/07 02:38:16;;;;;;;9.550001;8.700001;;;;;;;14.26;100;95607.58;;;;
2020/08/07 02:39:22;;;;;;;9.550001;8.700001;;;;;;;14.26;100;95607.58;;;;
2020/08/07 02:40:28;;;;;;;9.900001;9.000001;;;;;;;14.14;100;95606.31;;;;
2020/08/07 02:41:32;;;;;;;9.900001;9.000001;;;;;;;14.14;100;95606.31;;;;
2020/08/07 02:42:37;;;;;;;9.900001;9.000001;;;;;;;14.14;100;95606.31;;;;
2020/08/07 02:43:43;;;;;;;9.900001;9.000001;;;;;;;14.14;100;95606.31;;;;
2020/08/07 02:44:46;;;;;;;9.900001;9.000001;;;;;;;14.14;100;95606.31;;;;
2020/08/07 02:45:52;;;;;;;9.900001;9.000001;;;;;;;14.14;100;95606.31;;;;
2020/08/07 02:46:57;;;;;;;9.900001;9.000001;;;;;;;14.14;100;95606.31;;;;
2020/08/07 02:48:02;;;;;;;9.900001;9.000001;;;;;;;14.14;100;95606.31;;;;
2020/08/07 02:49:04;;;;;;;9.900001;9.000001;;;;;;;14.14;100;95606.31;;;;
2020/08/07 02:50:10;;;;;;;9.900001;9.000001;;;;;;;14.14;100;95606.31;;;;
2020/08/07 02:51:17;;;;;;;9.899999;9;;;;;;;14.09;100;95597.16;;;;
2020/08/07 02:52:22;;;;;;;9.899999;9;;;;;;;14.09;100;95597.16;;;;
2020/08/07 02:53:27;;;;;;;9.899999;9;;;;;;;14.09;100;95597.16;;;;
2020/08/07 02:54:31;;;;;;;9.899999;9;;;;;;;14.09;100;95597.16;;;;
2020/08/07 02:55:36;;;;;;;9.899999;9;;;;;;;14.09;100;95597.16;;;;
2020/08/07 02:56:41;;;;;;;9.899999;9;;;;;;;14.09;100;95597.16;;;;
2020/08/07 02:57:48;;;;;;;9.899999;9;;;;;;;14.09;100;95597.16;;;;
2020/08/07 02:58:51;;;;;;;9.899999;9;;;;;;;14.09;100;95597.16;;;;
2020/08/07 02:59:55;;;;;;;9.899999;9;;;;;;;14.09;100;95597.16;;;;
2020/08/07 03:01:00;;;;;;;9.899999;9;;;;;;;14.09;100;95597.16;;;;
2020/08/07 03:02:08;;;;;;;10.05;9.200001;;;;;;;13.99;100;95596.61;;;;
2020/08/07 03:03:15;;;;;;;10.05;9.200001;;;;;;;13.99;100;95596.61;;;;
2020/08/07 03:04:27;;;;;;;10.05;9.200001;;;;;;;13.99;100;95596.61;;;;
2020/08/07 03:05:32;;;;;;;10.05;9.200001;;;;;;;13.99;100;95596.61;;;;
2020/08/07 03:06:40;;;;;;;10.05;9.200001;;;;;;;13.99;100;95596.61;;;;
2020/08/07 03:07:46;;;;;;;10.05;9.200001;;;;;;;13.99;100;95596.61;;;;
2020/08/07 03:08:51;;;;;;;10.05;9.200001;;;;;;;13.99;100;95596.61;;;;
2020/08/07 03:09:55;;;;;;;10.05;9.200001;;;;;;;13.99;100;95596.61;;;;
2020/08/07 03:10:59;;;;;;;10.05;9.200001;;;;;;;13.99;100;95596.61;;;;
2020/08/07 03:12:03;;;;;;;10.5;9.599999;;;;;;;13.96;100;95594.93;;;;
2020/08/07 03:13:09;;;;;;;10.5;9.599999;;;;;;;13.96;100;95594.93;;;;
2020/08/07 03:14:16;;;;;;;10.5;9.599999;;;;;;;13.96;100;95594.93;;;;
2020/08/07 03:15:21;;;;;;;10.5;9.599999;;;;;;;13.96;100;95594.93;;;;
2020/08/07 03:16:27;;;;;;;10.5;9.599999;;;;;;;13.96;100;95594.93;;;;
2020/08/07 03:17:36;;;;;;;10.5;9.599999;;;;;;;13.96;100;95594.93;;;;
2020/08/07 03:18:41;;;;;;;10.5;9.599999;;;;;;;13.96;100;95594.93;;;;
2020/08/07 03:19:42;;;;;;;10.5;9.599999;;;;;;;13.96;100;95594.93;;;;
2020/08/07 03:20:47;;;;;;;10.5;9.599999;;;;;;;13.96;100;95594.93;;;;
2020/08/07 03:21:54;;;;;;;10.5;9.599999;;;;;;;13.96;100;95594.93;;;;
2020/08/07 03:23:01;;;;;;;10.65;9.65;;;;;;;13.85;100;95603.05;;;;
2020/08/07 03:24:05;;;;;;;10.65;9.65;;;;;;;13.85;100;95603.05;;;;
2020/08/07 03:25:16;;;;;;;10.65;9.65;;;;;;;13.85;100;95603.05;;;;
2020/08/07 03:26:24;;;;;;;10.65;9.65;;;;;;;13.85;100;95603.05;;;;
2020/08/07 03:27:29;;;;;;;10.65;9.65;;;;;;;13.85;100;95603.05;;;;
2020/08/07 03:28:35;;;;;;;10.65;9.65;;;;;;;13.85;100;95603.05;;;;
2020/08/07 03:29:43;;;;;;;10.65;9.65;;;;;;;13.85;100;95603.05;;;;
2020/08/07 03:30:48;;;;;;;10.65;9.65;;;;;;;13.85;100;95603.05;;;;
2020/08/07 03:31:55;;;;;;;10.65;9.65;;;;;;;13.85;100;95603.05;;;;
2020/08/07 03:33:00;;;;;;;10.65;9.65;;;;;;;13.85;100;95603.05;;;;
2020/08/07 03:34:05;;;;;;;10.05;9.150002;;;;;;;13.81;100;95608.26;;;;
2020/08/07 03:35:11;;;;;;;10.05;9.150002;;;;;;;13.81;100;95608.26;;;;
2020/08/07 03:36:16;;;;;;;10.05;9.150002;;;;;;;13.81;100;95608.26;;;;
2020/08/07 03:37:21;;;;;;;10.05;9.150002;;;;;;;13.81;100;95608.26;;;;
2020/08/07 03:38:26;;;;;;;10.05;9.150002;;;;;;;13.81;100;95608.26;;;;
2020/08/07 03:39:33;;;;;;;10.05;9.150002;;;;;;;13.81;100;95608.26;;;;
2020/08/07 03:40:39;;;;;;;10.05;9.150002;;;;;;;13.81;100;95608.26;;;;
2020/08/07 03:41:45;;;;;;;10.05;9.150002;;;;;;;13.81;100;95608.26;;;;
2020/08/07 03:42:57;;;;;;;10.05;9.150002;;;;;;;13.81;100;95608.26;;;;
2020/08/07 03:44:02;;;;;;;10.45;9.5;;;;;;;13.7;100;95612.3;;;;
2020/08/07 03:45:08;;;;;;;10.45;9.5;;;;;;;13.7;100;95612.3;;;;
2020/08/07 03:46:13;;;;;;;10.45;9.5;;;;;;;13.7;100;95612.3;;;;
2020/08/07 03:47:29;;;;;;;10.45;9.5;;;;;;;13.7;100;95612.3;;;;
2020/08/07 03:48:41;;;;;;;10.45;9.5;;;;;;;13.7;100;95612.3;;;;
2020/08/07 03:49:55;;;;;;;10.45;9.5;;;;;;;13.7;100;95612.3;;;;
2020/08/07 03:51:19;;;;;;;10.45;9.5;;;;;;;13.7;100;95612.3;;;;
2020/08/07 03:52:31;;;;;;;10.45;9.5;;;;;;;13.7;100;95612.3;;;;
2020/08/07 03:53:36;;;;;;;10.45;9.5;;;;;;;13.7;100;95612.3;;;;
2020/08/07 03:54:41;;;;;;;10.2;9.200001;;;;;;;13.67;100;95615.52;;;;
2020/08/07 03:55:53;;;;;;;10.2;9.200001;;;;;;;13.67;100;95615.52;;;;
2020/08/07 03:57:01;;;;;;;10.2;9.200001;;;;;;;13.67;100;95615.52;;;;
2020/08/07 03:58:06;;;;;;;10.2;9.200001;;;;;;;13.67;100;95615.52;;;;
2020/08/07 03:59:31;;;;;;;10.2;9.200001;;;;;;;13.67;100;95615.52;;;;
2020/08/07 04:00:37;;;;;;;10.2;9.200001;;;;;;;13.67;100;95615.52;;;;
2020/08/07 04:01:44;;;;;;;10.2;9.200001;;;;;;;13.67;100;95615.52;;;;
2020/08/07 04:02:49;;;;;;;10.2;9.200001;;;;;;;13.67;100;95615.52;;;;
2020/08/07 04:03:57;;;;;;;10.2;9.200001;;;;;;;13.67;100;95615.52;;;;
2020/08/07 04:05:07;;;;;;;12;10.65;;;;;;;13.58;100;95613.72;;;;
2020/08/07 04:06:18;;;;;;;12;10.65;;;;;;;13.58;100;95613.72;;;;
2020/08/07 04:07:25;;;;;;;12;10.65;;;;;;;13.58;100;95613.72;;;;
2020/08/07 04:08:42;;;;;;;12;10.65;;;;;;;13.58;100;95613.72;;;;
2020/08/07 04:09:55;;;;;;;12;10.65;;;;;;;13.58;100;95613.72;;;;
2020/08/07 04:11:09;;;;;;;12;10.65;;;;;;;13.58;100;95613.72;;;;
2020/08/07 04:12:30;;;;;;;12;10.65;;;;;;;13.58;100;95613.72;;;;
2020/08/07 04:13:36;;;;;;;12;10.65;;;;;;;13.58;100;95613.72;;;;
2020/08/07 04:14:51;;;;;;;12;10.65;;;;;;;13.58;100;95613.72;;;;
2020/08/07 04:15:58;;;;;;;12;10.8;;;;;;;13.6;100;95626.92;;;;
2020/08/07 04:17:12;;;;;;;12;10.8;;;;;;;13.6;100;95626.92;;;;
2020/08/07 04:18:31;;;;;;;12;10.8;;;;;;;13.6;100;95626.92;;;;
2020/08/07 04:19:40;;;;;;;12;10.8;;;;;;;13.6;100;95626.92;;;;
2020/08/07 04:20:52;;;;;;;12;10.8;;;;;;;13.6;100;95626.92;;;;
2020/08/07 04:22:01;;;;;;;12;10.8;;;;;;;13.6;100;95626.92;;;;
2020/08/07 04:23:17;;;;;;;12;10.8;;;;;;;13.6;100;95626.92;;;;
2020/08/07 04:24:25;;;;;;;12;10.8;;;;;;;13.6;100;95626.92;;;;
2020/08/07 04:25:37;;;;;;;12;10.8;;;;;;;13.6;100;95626.92;;;;
2020/08/07 04:26:52;;;;;;;12.8;11.65;;;;;;;13.62;100;95622.19;;;;
2020/08/07 04:28:06;;;;;;;12.8;11.65;;;;;;;13.62;100;95622.19;;;;
2020/08/07 04:29:17;;;;;;;12.8;11.65;;;;;;;13.62;100;95622.19;;;;
2020/08/07 04:30:26;;;;;;;12.8;11.65;;;;;;;13.62;100;95622.19;;;;
2020/08/07 04:31:33;;;;;;;12.8;11.65;;;;;;;13.62;100;95622.19;;;;
2020/08/07 04:32:44;;;;;;;12.8;11.65;;;;;;;13.62;100;95622.19;;;;
2020/08/07 04:33:56;;;;;;;12.8;11.65;;;;;;;13.62;100;95622.19;;;;
2020/08/07 04:35:00;;;;;;;12.8;11.65;;;;;;;13.62;100;95622.19;;;;
2020/08/07 04:36:16;;;;;;;12.8;11.65;;;;;;;13.62;100;95622.19;;;;
2020/08/07 04:37:21;;;;;;;13.25;11.95;;;;;;;13.74;100;95637.46;;;;
2020/08/07 04:38:36;;;;;;;13.25;11.95;;;;;;;13.74;100;95637.46;;;;
2020/08/07 04:39:46;;;;;;;13.25;11.95;;;;;;;13.74;100;95637.46;;;;
2020/08/07 04:40:55;;;;;;;13.25;11.95;;;;;;;13.74;100;95637.46;;;;
2020/08/07 04:42:04;;;;;;;13.25;11.95;;;;;;;13.74;100;95637.46;;;;
2020/08/07 04:43:21;;;;;;;13.25;11.95;;;;;;;13.74;100;95637.46;;;;
2020/08/07 04:44:29;;;;;;;13.25;11.95;;;;;;;13.74;100;95637.46;;;;
2020/08/07 04:45:39;;;;;;;13.25;11.95;;;;;;;13.74;100;95637.46;;;;
2020/08/07 04:46:46;;;;;;;13.25;11.95;;;;;;;13.74;100;95637.46;;;;
2020/08/07 04:47:52;;;;;;;13.25;12.05;;;;;;;13.85;100;95639.28;;;;
2020/08/07 04:48:58;;;;;;;13.25;12.05;;;;;;;13.85;100;95639.28;;;;
2020/08/07 04:50:11;;;;;;;13.25;12.05;;;;;;;13.85;100;95639.28;;;;
2020/08/07 04:51:24;;;;;;;13.25;12.05;;;;;;;13.85;100;95639.28;;;;
2020/08/07 04:52:34;;;;;;;13.25;12.05;;;;;;;13.85;100;95639.28;;;;
2020/08/07 04:53:43;;;;;;;13.25;12.05;;;;;;;13.85;100;95639.28;;;;
2020/08/07 04:54:50;;;;;;;13.25;12.05;;;;;;;13.85;100;95639.28;;;;
2020/08/07 04:56:00;;;;;;;13.25;12.05;;;;;;;13.85;100;95639.28;;;;
2020/08/07 04:57:12;;;;;;;13.25;12.05;;;;;;;13.85;100;95639.28;;;;
2020/08/07 04:58:23;;;;;;;13.05;11.85;;;;;;;14.05;100;95643.11;;;;
2020/08/07 04:59:29;;;;;;;13.05;11.85;;;;;;;14.05;100;95643.11;;;;
2020/08/07 05:00:38;;;;;;;13.05;11.85;;;;;;;14.05;100;95643.11;;;;
2020/08/07 05:01:45;;;;;;;13.05;11.85;;;;;;;14.05;100;95643.11;;;;
2020/08/07 05:02:50;;;;;;;13.05;11.85;;;;;;;14.05;100;95643.11;;;;
2020/08/07 05:03:57;;;;;;;13.05;11.85;;;;;;;14.05;100;95643.11;;;;
2020/08/07 05:05:06;;;;;;;13.05;11.85;;;;;;;14.05;100;95643.11;;;;
2020/08/07 05:06:25;;;;;;;13.05;11.85;;;;;;;14.05;100;95643.11;;;;
2020/08/07 05:07:34;;;;;;;13.05;11.85;;;;;;;14.05;100;95643.11;;;;
2020/08/07 05:08:45;;;;;;;15.05;13.65;;;;;;;14.26;100;95653.26;;;;
2020/08/07 05:10:00;;;;;;;15.05;13.65;;;;;;;14.26;100;95653.26;;;;
2020/08/07 05:11:09;;;;;;;15.05;13.65;;;;;;;14.26;100;95653.26;;;;
2020/08/07 05:12:18;;;;;;;15.05;13.65;;;;;;;14.26;100;95653.26;;;;
2020/08/07 05:13:30;;;;;;;15.05;13.65;;;;;;;14.26;100;95653.26;;;;
2020/08/07 05:14:41;;;;;;;15.05;13.65;;;;;;;14.26;100;95653.26;;;;
2020/08/07 05:15:53;;;;;;;15.05;13.65;;;;;;;14.26;100;95653.26;;;;
2020/08/07 05:17:05;;;;;;;15.05;13.65;;;;;;;14.26;100;95653.26;;;;
2020/08/07 05:18:17;;;;;;;15.05;13.65;;;;;;;14.26;100;95653.26;;;;
2020/08/07 05:19:29;;;;;;;16.1;14.55;;;;;;;14.61;100;95665.13;;;;
2020/08/07 05:20:48;;;;;;;16.1;14.55;;;;;;;14.61;100;95665.13;;;;
2020/08/07 05:21:54;;;;;;;16.1;14.55;;;;;;;14.61;100;95665.13;;;;
2020/08/07 05:23:11;;;;;;;16.1;14.55;;;;;;;14.61;100;95665.13;;;;
2020/08/07 05:24:21;;;;;;;16.1;14.55;;;;;;;14.61;100;95665.13;;;;
2020/08/07 05:25:31;;;;;;;16.1;14.55;;;;;;;14.61;100;95665.13;;;;
2020/08/07 05:26:52;;;;;;;16.1;14.55;;;;;;;14.61;100;95665.13;;;;
2020/08/07 05:28:34;;;;;;;16.1;14.55;;;;;;;14.61;100;95665.13;;;;
2020/08/07 05:29:44;;;;;;;20.7;18.85;;;;;;;14.97;100;95658.13;;;;
2020/08/07 05:31:19;;;;;;;20.7;18.85;;;;;;;14.97;100;95658.13;;;;
2020/08/07 05:32:59;;;;;;;20.7;18.85;;;;;;;14.97;100;95658.13;;;;
2020/08/07 05:34:25;;;;;;;20.7;18.85;;;;;;;14.97;100;95658.13;;;;
2020/08/07 05:36:45;;;;;;;20.7;18.85;;;;;;;14.97;100;95658.13;;;;
2020/08/07 05:37:56;;;;;;;20.7;18.85;;;;;;;14.97;100;95658.13;;;;
2020/08/07 05:39:19;;;;;;;20.7;18.85;;;;;;;14.97;100;95658.13;;;;
2020/08/07 05:40:28;;;;;;;29.15;26.15;;;;;;;15.59;100;95659.11;;;;
2020/08/07 05:41:37;;;;;;;29.15;26.15;;;;;;;15.59;100;95659.11;;;;
2020/08/07 05:43:03;;;;;;;29.15;26.15;;;;;;;15.59;100;95659.11;;;;
2020/08/07 05:44:17;;;;;;;29.15;26.15;;;;;;;15.59;100;95659.11;;;;
2020/08/07 05:45:28;;;;;;;29.15;26.15;;;;;;;15.59;100;95659.11;;;;
2020/08/07 05:46:37;;;;;;;29.15;26.15;;;;;;;15.59;100;95659.11;;;;
2020/08/07 05:47:51;;;;;;;29.15;26.15;;;;;;;15.59;100;95659.11;;;;
2020/08/07 05:49:13;;;;;;;29.15;26.15;;;;;;;15.59;100;95659.11;;;;
2020/08/07 05:50:38;;;;;;;29.15;26.15;;;;;;;15.59;100;95659.11;;;;
2020/08/07 05:54:13;;;;;;;28.45;25.65;;;;;;;16.19;100;95657.86;;;;
2020/08/07 05:55:39;;;;;;;28.45;25.65;;;;;;;16.19;100;95657.86;;;;
2020/08/07 05:56:46;;;;;;;28.45;25.65;;;;;;;16.19;100;95657.86;;;;
2020/08/07 05:58:19;;;;;;;28.45;25.65;;;;;;;16.19;100;95657.86;;;;
2020/08/07 05:59:28;;;;;;;28.45;25.65;;;;;;;16.19;100;95657.86;;;;
2020/08/07 06:00:39;;;;;;;28.45;25.65;;;;;;;16.19;100;95657.86;;;;
2020/08/07 06:01:49;;;;;;;23.8;21.35;;;;;;;16.84;100;95662.36;;;;
2020/08/07 06:03:26;;;;;;;23.8;21.35;;;;;;;16.84;100;95662.36;;;;
2020/08/07 06:04:54;;;;;;;23.8;21.35;;;;;;;16.84;100;95662.36;;;;
2020/08/07 06:06:02;;;;;;;23.8;21.35;;;;;;;16.84;100;95662.36;;;;
2020/08/07 06:07:14;;;;;;;23.8;21.35;;;;;;;16.84;100;95662.36;;;;
2020/08/07 06:08:30;;;;;;;23.8;21.35;;;;;;;16.84;100;95662.36;;;;
2020/08/07 06:09:40;;;;;;;23.8;21.35;;;;;;;16.84;100;95662.36;;;;
2020/08/07 06:10:46;;;;;;;23.8;21.35;;;;;;;16.84;100;95662.36;;;;
2020/08/07 06:11:55;;;;;;;23.8;21.35;;;;;;;16.84;100;95662.36;;;;
2020/08/07 06:13:00;;;;;;;23.1;21.05;;;;;;;17.42;100;95673.91;;;;
2020/08/07 06:14:05;;;;;;;23.1;21.05;;;;;;;17.42;100;95673.91;;;;
2020/08/07 06:15:15;;;;;;;23.1;21.05;;;;;;;17.42;100;95673.91;;;;
2020/08/07 06:16:27;;;;;;;23.1;21.05;;;;;;;17.42;100;95673.91;;;;
2020/08/07 06:17:33;;;;;;;23.1;21.05;;;;;;;17.42;100;95673.91;;;;
2020/08/07 06:18:41;;;;;;;23.1;21.05;;;;;;;17.42;100;95673.91;;;;
2020/08/07 06:19:48;;;;;;;23.1;21.05;;;;;;;17.42;100;95673.91;;;;
2020/08/07 06:20:57;;;;;;;23.1;21.05;;;;;;;17.42;100;95673.91;;;;
2020/08/07 06:22:02;;;;;;;23.1;21.05;;;;;;;17.42;100;95673.91;;;;
2020/08/07 06:23:07;;;;;;;19.15;17.25;;;;;;;18.08;100;95681.3;;;;
2020/08/07 06:24:16;;;;;;;19.15;17.25;;;;;;;18.08;100;95681.3;;;;
2020/08/07 06:25:22;;;;;;;19.15;17.25;;;;;;;18.08;100;95681.3;;;;
2020/08/07 06:26:28;;;;;;;19.15;17.25;;;;;;;18.08;100;95681.3;;;;
2020/08/07 06:27:34;;;;;;;19.15;17.25;;;;;;;18.08;100;95681.3;;;;
2020/08/07 06:28:50;;;;;;;19.15;17.25;;;;;;;18.08;100;95681.3;;;;
2020/08/07 06:29:58;;;;;;;19.15;17.25;;;;;;;18.08;100;95681.3;;;;
2020/08/07 06:31:06;;;;;;;19.15;17.25;;;;;;;18.08;100;95681.3;;;;
2020/08/07 06:32:12;;;;;;;19.15;17.25;;;;;;;18.08;100;95681.3;;;;
2020/08/07 06:33:20;;;;;;;16.25;14.65;;;;;;;18.75;100;95687.69;;;;
2020/08/07 06:34:26;;;;;;;16.25;14.65;;;;;;;18.75;100;95687.69;;;;
2020/08/07 06:35:32;;;;;;;16.25;14.65;;;;;;;18.75;100;95687.69;;;;
2020/08/07 06:36:39;;;;;;;16.25;14.65;;;;;;;18.75;100;95687.69;;;;
2020/08/07 06:37:47;;;;;;;16.25;14.65;;;;;;;18.75;100;95687.69;;;;
2020/08/07 06:38:58;;;;;;;16.25;14.65;;;;;;;18.75;100;95687.69;;;;
2020/08/07 06:40:11;;;;;;;16.25;14.65;;;;;;;18.75;100;95687.69;;;;
2020/08/07 06:41:17;;;;;;;16.25;14.65;;;;;;;18.75;100;95687.69;;;;
2020/08/07 06:42:25;;;;;;;16.25;14.65;;;;;;;18.75;100;95687.69;;;;
2020/08/07 06:43:33;;;;;;;16.25;14.65;;;;;;;18.75;100;95687.69;;;;
2020/08/07 06:44:44;;;;;;;12.6;11.3;;;;;;;20.06;100;95686.55;;;;
2020/08/07 06:45:53;;;;;;;12.6;11.3;;;;;;;20.06;100;95686.55;;;;
2020/08/07 06:47:00;;;;;;;12.6;11.3;;;;;;;20.06;100;95686.55;;;;
2020/08/07 06:48:09;;;;;;;12.6;11.3;;;;;;;20.06;100;95686.55;;;;
2020/08/07 06:49:22;;;;;;;12.6;11.3;;;;;;;20.06;100;95686.55;;;;
2020/08/07 06:50:27;;;;;;;12.6;11.3;;;;;;;20.06;100;95686.55;;;;
2020/08/07 06:51:36;;;;;;;12.6;11.3;;;;;;;20.06;100;95686.55;;;;
2020/08/07 06:52:47;;;;;;;12.6;11.3;;;;;;;20.06;100;95686.55;;;;
2020/08/07 06:53:51;;;;;;;12.6;11.3;;;;;;;20.06;100;95686.55;;;;
2020/08/07 06:54:57;;;;;;;10.4;9.399999;;;;;;;21.73;100;95684.73;;;;
2020/08/07 06:56:11;;;;;;;10.4;9.399999;;;;;;;21.73;100;95684.73;;;;
2020/08/07 06:57:20;;;;;;;10.4;9.399999;;;;;;;21.73;100;95684.73;;;;
2020/08/07 06:58:30;;;;;;;10.4;9.399999;;;;;;;21.73;100;95684.73;;;;
2020/08/07 06:59:38;;;;;;;10.4;9.399999;;;;;;;21.73;100;95684.73;;;;
2020/08/07 07:00:43;;;;;;;10.4;9.399999;;;;;;;21.73;100;95684.73;;;;
2020/08/07 07:01:55;;;;;;;10.4;9.399999;;;;;;;21.73;100;95684.73;;;;
2020/08/07 07:03:06;;;;;;;10.4;9.399999;;;;;;;21.73;100;95684.73;;;;
2020/08/07 07:04:18;;;;;;;10.4;9.399999;;;;;;;21.73;100;95684.73;;;;
2020/08/07 07:05:24;;;;;;;9.15;8.25;;;;;;;23.05;100;95685.49;;;;
2020/08/07 07:06:32;;;;;;;9.15;8.25;;;;;;;23.05;100;95685.49;;;;
2020/08/07 07:07:38;;;;;;;9.15;8.25;;;;;;;23.05;100;95685.49;;;;
2020/08/07 07:08:49;;;;;;;9.15;8.25;;;;;;;23.05;100;95685.49;;;;